createdAt,value
2023-01-07T00:00:29.412Z,59.26
2023-01-07T00:01:33.802Z,59.46
2023-01-07T00:02:38.244Z,59.35
2023-01-07T00:03:42.694Z,59.32
2023-01-07T00:04:46.945Z,59.84
2023-01-07T00:05:51.193Z,59.46
2023-01-07T00:06:55.477Z,59.73
2023-01-07T00:07:59.732Z,59.65
2023-01-07T00:09:04.029Z,60.21
2023-01-07T00:10:08.266Z,60.04
2023-01-07T00:11:12.546Z,60.5
2023-01-07T00:12:16.821Z,60.19
2023-01-07T00:13:21.088Z,60.32
2023-01-07T00:14:25.314Z,60.26
2023-01-07T00:15:29.587Z,60.58
2023-01-07T00:16:33.829Z,60.73
2023-01-07T00:17:38.444Z,60.83
2023-01-07T00:18:42.674Z,61.01
2023-01-07T00:19:46.925Z,60.45
2023-01-07T00:20:51.171Z,60.98
2023-01-07T00:21:55.488Z,61.26
2023-01-07T00:22:59.744Z,60.67
2023-01-07T00:24:03.994Z,60.68
2023-01-07T00:25:08.258Z,61.16
2023-01-07T00:26:12.517Z,61.22
2023-01-07T00:27:16.804Z,60.71
2023-01-07T00:28:21.099Z,61.34
2023-01-07T00:29:25.337Z,61.42
2023-01-07T00:30:29.581Z,61.21
2023-01-07T00:31:34.146Z,61.31
2023-01-07T00:32:39.085Z,61.64
2023-01-07T00:33:43.324Z,61.9
2023-01-07T00:34:47.589Z,61.91
2023-01-07T00:35:51.859Z,61.58
2023-01-07T00:36:56.110Z,62.03
2023-01-07T00:38:00.384Z,61.77
2023-01-07T00:39:04.670Z,61.44
2023-01-07T00:40:08.932Z,61.91
2023-01-07T00:41:13.165Z,62.02
2023-01-07T00:42:17.420Z,61.59
2023-01-07T00:43:21.694Z,61.98
2023-01-07T00:44:25.971Z,61.83
2023-01-07T00:45:30.255Z,62.1
2023-01-07T00:46:34.721Z,62.23
2023-01-07T00:47:38.990Z,62.19
2023-01-07T00:48:43.238Z,61.75
2023-01-07T00:49:48.537Z,61.47
2023-01-07T00:50:52.819Z,62.2
2023-01-07T00:51:57.113Z,61.58
2023-01-07T00:53:01.381Z,62.29
2023-01-07T00:54:05.645Z,62.15
2023-01-07T00:55:09.935Z,62.18
2023-01-07T00:56:14.237Z,62.15
2023-01-07T00:57:18.493Z,62.04
2023-01-07T00:58:22.766Z,62.03
2023-01-07T00:59:27.059Z,62.11
2023-01-07T01:00:31.551Z,61.88
2023-01-07T01:01:36.246Z,62.42
2023-01-07T01:02:40.789Z,62.11
2023-01-07T01:03:45.042Z,62.13
2023-01-07T01:04:49.334Z,62.34
2023-01-07T01:05:53.658Z,61.92
2023-01-07T01:06:57.926Z,62.35
2023-01-07T01:08:02.172Z,61.85
2023-01-07T01:09:06.429Z,62.01
2023-01-07T01:10:10.702Z,61.95
2023-01-07T01:11:15.044Z,62.32
2023-01-07T01:12:19.285Z,62.19
2023-01-07T01:13:23.540Z,62.55
2023-01-07T01:14:27.804Z,62.7
2023-01-07T01:15:32.080Z,62.12
2023-01-07T01:16:36.709Z,62.6
2023-01-07T01:17:41.010Z,62.73
2023-01-07T01:18:45.273Z,62.97
2023-01-07T01:19:49.598Z,62.57
2023-01-07T01:20:53.886Z,63.04
2023-01-07T01:21:58.119Z,62.55
2023-01-07T01:23:02.368Z,63.1
2023-01-07T01:24:06.628Z,62.94
2023-01-07T01:25:10.935Z,62.79
2023-01-07T01:26:15.206Z,63.04
2023-01-07T01:27:19.448Z,63.36
2023-01-07T01:28:23.805Z,63.27
2023-01-07T01:29:28.067Z,62.37
2023-01-07T01:30:32.374Z,62.31
2023-01-07T01:31:37.038Z,63.16
2023-01-07T01:32:41.315Z,63.26
2023-01-07T01:33:45.591Z,63.3
2023-01-07T01:34:49.845Z,62.58
2023-01-07T01:35:54.100Z,63.46
2023-01-07T01:36:58.494Z,63.46
2023-01-07T01:38:02.726Z,63.65
2023-01-07T01:39:07.032Z,62.8
2023-01-07T01:40:12.315Z,63.09
2023-01-07T01:41:16.600Z,63.63
2023-01-07T01:42:20.853Z,63.09
2023-01-07T01:43:25.126Z,63.09
2023-01-07T01:44:29.441Z,63.21
2023-01-07T01:45:33.722Z,63.22
2023-01-07T01:46:38.253Z,63.41
2023-01-07T01:47:42.557Z,62.99
2023-01-07T01:48:46.784Z,63.79
2023-01-07T01:49:51.097Z,63.46
2023-01-07T01:50:55.365Z,63.33
2023-01-07T01:51:59.669Z,63.95
2023-01-07T01:53:04.074Z,62.91
2023-01-07T01:54:09.368Z,63.19
2023-01-07T01:55:13.639Z,63.99
2023-01-07T01:56:17.897Z,63.52
2023-01-07T01:57:22.158Z,63.24
2023-01-07T01:58:26.511Z,63.44
2023-01-07T01:59:30.764Z,63.56
2023-01-07T02:00:35.179Z,63.81
2023-01-07T02:01:40.241Z,63.89
2023-01-07T02:02:44.796Z,63.4
2023-01-07T02:03:49.087Z,63.41
2023-01-07T02:04:53.374Z,63.3
2023-01-07T02:05:57.620Z,63.9
2023-01-07T02:07:01.845Z,63.97
2023-01-07T02:08:06.080Z,64
2023-01-07T02:09:10.348Z,63.29
2023-01-07T02:10:14.616Z,63.55
2023-01-07T02:11:18.851Z,63.91
2023-01-07T02:12:23.088Z,63.93
2023-01-07T02:13:27.342Z,63.84
2023-01-07T02:14:31.589Z,64.31
2023-01-07T02:15:35.827Z,64.19
2023-01-07T02:16:40.353Z,64.29
2023-01-07T02:17:44.618Z,64.48
2023-01-07T02:18:48.889Z,63.89
2023-01-07T02:19:53.136Z,64.42
2023-01-07T02:20:57.412Z,64.36
2023-01-07T02:22:01.703Z,63.46
2023-01-07T02:23:05.952Z,64.01
2023-01-07T02:24:13.224Z,64.14
2023-01-07T02:25:17.488Z,63.74
2023-01-07T02:26:21.740Z,63.98
2023-01-07T02:27:25.985Z,64.12
2023-01-07T02:28:30.235Z,64.35
2023-01-07T02:29:34.505Z,64.28
2023-01-07T02:30:38.742Z,63.31
2023-01-07T02:31:43.219Z,64.01
2023-01-07T02:32:47.497Z,64.21
2023-01-07T02:33:51.750Z,64.22
2023-01-07T02:34:56.034Z,64.1
2023-01-07T02:36:00.282Z,64.51
2023-01-07T02:37:04.542Z,64.71
2023-01-07T02:38:08.881Z,64.15
2023-01-07T02:39:13.118Z,64.65
2023-01-07T02:40:17.483Z,64.54
2023-01-07T02:41:21.813Z,63.91
2023-01-07T02:42:26.032Z,63.82
2023-01-07T02:43:30.277Z,63.62
2023-01-07T02:44:34.532Z,63.35
2023-01-07T02:45:38.882Z,63.31
2023-01-07T02:46:43.184Z,63.01
2023-01-07T02:47:47.467Z,63.09
2023-01-07T02:48:51.779Z,63.58
2023-01-07T02:49:56.064Z,63.56
2023-01-07T02:51:00.307Z,64.24
2023-01-07T02:52:04.579Z,63.74
2023-01-07T02:53:08.896Z,63.98
2023-01-07T02:54:13.152Z,63.73
2023-01-07T02:55:17.395Z,63.92
2023-01-07T02:56:21.671Z,64.36
2023-01-07T02:57:25.956Z,64.2
2023-01-07T02:58:30.218Z,64.5
2023-01-07T02:59:34.503Z,64.26
2023-01-07T03:00:38.858Z,64.13
2023-01-07T03:01:43.606Z,64.28
2023-01-07T03:02:47.957Z,63.91
2023-01-07T03:03:52.454Z,63.62
2023-01-07T03:04:57.774Z,64.29
2023-01-07T03:06:02.047Z,63.77
2023-01-07T03:07:06.301Z,63.86
2023-01-07T03:08:10.538Z,64.6
2023-01-07T03:09:14.814Z,64.29
2023-01-07T03:10:19.095Z,63.64
2023-01-07T03:11:23.373Z,64.09
2023-01-07T03:12:27.634Z,64.29
2023-01-07T03:13:31.898Z,63.97
2023-01-07T03:14:36.150Z,63.67
2023-01-07T03:15:40.411Z,63.75
2023-01-07T03:16:44.868Z,64.58
2023-01-07T03:17:49.133Z,64.48
2023-01-07T03:18:53.371Z,63.63
2023-01-07T03:19:57.678Z,64.56
2023-01-07T03:21:01.932Z,64.73
2023-01-07T03:22:06.225Z,65.05
2023-01-07T03:23:10.490Z,64.25
2023-01-07T03:24:14.740Z,64.25
2023-01-07T03:25:18.994Z,64.69
2023-01-07T03:26:23.535Z,64.35
2023-01-07T03:27:27.830Z,64.91
2023-01-07T03:28:32.378Z,64.54
2023-01-07T03:29:36.740Z,64.09
2023-01-07T03:30:41.004Z,64.85
2023-01-07T03:31:45.505Z,64.63
2023-01-07T03:32:49.775Z,65.01
2023-01-07T03:33:54.071Z,64.86
2023-01-07T03:34:58.343Z,64.9
2023-01-07T03:36:02.628Z,64.31
2023-01-07T03:37:06.979Z,64.25
2023-01-07T03:38:11.232Z,63.82
2023-01-07T03:39:15.549Z,64.11
2023-01-07T03:40:19.822Z,64.35
2023-01-07T03:41:24.146Z,64.37
2023-01-07T03:42:28.444Z,64.94
2023-01-07T03:43:32.743Z,64.88
2023-01-07T03:44:37.030Z,64.78
2023-01-07T03:45:41.339Z,64.08
2023-01-07T03:46:45.593Z,63.91
2023-01-07T03:47:49.875Z,64.79
2023-01-07T03:48:54.146Z,64.68
2023-01-07T03:49:58.487Z,64.42
2023-01-07T03:51:02.817Z,64.03
2023-01-07T03:52:07.076Z,64.96
2023-01-07T03:53:11.385Z,64.95
2023-01-07T03:54:15.663Z,65.16
2023-01-07T03:55:20.049Z,65.02
2023-01-07T03:56:24.326Z,64.2
2023-01-07T03:57:28.592Z,65.21
2023-01-07T03:58:32.871Z,65.21
2023-01-07T03:59:37.164Z,63.99
2023-01-07T04:00:41.452Z,64.37
2023-01-07T04:01:46.306Z,64.08
2023-01-07T04:02:50.679Z,63.95
2023-01-07T04:03:54.949Z,64.14
2023-01-07T04:04:59.333Z,64.17
2023-01-07T04:06:03.706Z,64.86
2023-01-07T04:07:07.971Z,64.42
2023-01-07T04:08:12.238Z,65.11
2023-01-07T04:09:16.529Z,65.03
2023-01-07T04:10:20.799Z,64.62
2023-01-07T04:11:25.081Z,64.81
2023-01-07T04:12:29.342Z,64.92
2023-01-07T04:13:33.604Z,64.37
2023-01-07T04:14:37.859Z,64.99
2023-01-07T04:15:42.135Z,64.61
2023-01-07T04:16:46.664Z,65.18
2023-01-07T04:17:50.923Z,65.08
2023-01-07T04:18:55.189Z,64.98
2023-01-07T04:19:59.496Z,65.02
2023-01-07T04:21:03.763Z,64.47
2023-01-07T04:22:08.052Z,65.13
2023-01-07T04:23:12.307Z,64.05
2023-01-07T04:24:16.541Z,64.96
2023-01-07T04:25:20.798Z,64.02
2023-01-07T04:26:25.037Z,63.77
2023-01-07T04:27:29.340Z,64.81
2023-01-07T04:28:33.580Z,64.8
2023-01-07T04:29:37.838Z,63.77
2023-01-07T04:30:42.269Z,64.85
2023-01-07T04:31:46.707Z,63.87
2023-01-07T04:32:50.991Z,64.3
2023-01-07T04:33:55.252Z,65.11
2023-01-07T04:34:59.508Z,65.12
2023-01-07T04:36:03.804Z,64.38
2023-01-07T04:37:08.063Z,64.14
2023-01-07T04:38:12.337Z,64.69
2023-01-07T04:39:16.675Z,64.81
2023-01-07T04:40:20.933Z,63.95
2023-01-07T04:41:25.225Z,63.95
2023-01-07T04:42:29.472Z,64.5
2023-01-07T04:43:33.742Z,64.64
2023-01-07T04:44:38.001Z,64.9
2023-01-07T04:45:42.264Z,65.15
2023-01-07T04:46:46.544Z,64.38
2023-01-07T04:47:51.832Z,64.94
2023-01-07T04:48:56.131Z,64.16
2023-01-07T04:50:00.373Z,64.84
2023-01-07T04:51:04.610Z,63.82
2023-01-07T04:52:08.851Z,64.82
2023-01-07T04:53:13.095Z,64.7
2023-01-07T04:54:17.335Z,64.07
2023-01-07T04:55:21.640Z,64.81
2023-01-07T04:56:25.918Z,64.67
2023-01-07T04:57:30.181Z,63.91
2023-01-07T04:58:34.430Z,64.56
2023-01-07T04:59:38.665Z,64.24
2023-01-07T05:00:42.978Z,63.8
2023-01-07T05:01:47.625Z,64.63
2023-01-07T05:02:51.926Z,64.24
2023-01-07T05:03:56.275Z,63.82
2023-01-07T05:05:00.507Z,64.74
2023-01-07T05:06:04.818Z,63.82
2023-01-07T05:07:12.102Z,63.84
2023-01-07T05:08:16.333Z,63.71
2023-01-07T05:09:20.600Z,64.55
2023-01-07T05:10:24.832Z,64.37
2023-01-07T05:11:29.123Z,64.1
2023-01-07T05:12:33.384Z,63.59
2023-01-07T05:13:37.708Z,63.21
2023-01-07T05:14:41.973Z,62.95
2023-01-07T05:15:46.262Z,62.89
2023-01-07T05:16:50.885Z,62.71
2023-01-07T05:17:55.238Z,63.07
2023-01-07T05:18:59.532Z,62.78
2023-01-07T05:20:03.838Z,62.59
2023-01-07T05:21:08.097Z,62.35
2023-01-07T05:22:12.348Z,62.2
2023-01-07T05:23:16.594Z,62.34
2023-01-07T05:24:20.846Z,62.27
2023-01-07T05:25:25.187Z,62.07
2023-01-07T05:26:29.436Z,62.1
2023-01-07T05:27:33.702Z,62.2
2023-01-07T05:28:37.953Z,62.14
2023-01-07T05:29:42.281Z,62.13
2023-01-07T05:30:46.664Z,62.07
2023-01-07T05:31:50.923Z,61.9
2023-01-07T05:32:55.193Z,61.9
2023-01-07T05:33:59.431Z,61.83
2023-01-07T05:35:06.707Z,61.98
2023-01-07T05:36:11.056Z,62.13
2023-01-07T05:37:15.318Z,61.93
2023-01-07T05:38:19.554Z,61.8
2023-01-07T05:39:23.835Z,61.65
2023-01-07T05:40:28.102Z,61.68
2023-01-07T05:41:32.363Z,61.53
2023-01-07T05:42:36.643Z,61.58
2023-01-07T05:43:40.915Z,61.55
2023-01-07T05:44:45.176Z,61.54
2023-01-07T05:45:49.654Z,61.51
2023-01-07T05:46:53.989Z,61.61
2023-01-07T05:47:58.250Z,61.49
2023-01-07T05:49:02.516Z,61.46
2023-01-07T05:50:06.926Z,61.43
2023-01-07T05:51:11.193Z,61.42
2023-01-07T05:52:15.433Z,61.3
2023-01-07T05:53:19.697Z,61.36
2023-01-07T05:54:23.999Z,61.3
2023-01-07T05:55:28.253Z,61.28
2023-01-07T05:56:32.517Z,61.27
2023-01-07T05:57:36.807Z,61.14
2023-01-07T05:58:41.070Z,61.19
2023-01-07T05:59:45.338Z,61.17
2023-01-07T06:00:49.712Z,61.2
2023-01-07T06:01:54.096Z,61.17
2023-01-07T06:02:58.363Z,61.21
2023-01-07T06:04:02.636Z,61.37
2023-01-07T06:05:07.152Z,61.11
2023-01-07T06:06:11.446Z,61.14
2023-01-07T06:07:15.735Z,61.15
2023-01-07T06:08:19.981Z,61.23
2023-01-07T06:09:24.246Z,61.4
2023-01-07T06:10:28.523Z,61.31
2023-01-07T06:11:32.777Z,61.47
2023-01-07T06:12:37.063Z,61.64
2023-01-07T06:13:41.351Z,61.63
2023-01-07T06:14:45.634Z,61.83
2023-01-07T06:15:50.064Z,61.85
2023-01-07T06:16:54.340Z,61.94
2023-01-07T06:17:58.644Z,61.95
2023-01-07T06:19:02.914Z,61.95
2023-01-07T06:20:07.233Z,62.14
2023-01-07T06:21:11.474Z,62.12
2023-01-07T06:22:15.748Z,62.12
2023-01-07T06:23:20.029Z,62.3
2023-01-07T06:24:24.298Z,62.33
2023-01-07T06:25:28.579Z,62.35
2023-01-07T06:26:32.845Z,62.43
2023-01-07T06:27:37.119Z,62.55
2023-01-07T06:28:41.354Z,62.57
2023-01-07T06:29:45.589Z,62.59
2023-01-07T06:30:49.982Z,62.6
2023-01-07T06:31:54.305Z,62.64
2023-01-07T06:32:58.534Z,62.53
2023-01-07T06:34:02.794Z,62.39
2023-01-07T06:35:07.081Z,62.31
2023-01-07T06:36:11.336Z,62.36
2023-01-07T06:37:15.587Z,62.15
2023-01-07T06:38:22.857Z,62.19
2023-01-07T06:39:27.122Z,62.18
2023-01-07T06:40:31.362Z,62.16
2023-01-07T06:41:35.636Z,62.06
2023-01-07T06:42:39.871Z,62.57
2023-01-07T06:43:44.358Z,62.21
2023-01-07T06:44:48.818Z,62.62
2023-01-07T06:45:53.054Z,62.68
2023-01-07T06:46:57.376Z,62.68
2023-01-07T06:48:01.629Z,62.29
2023-01-07T06:49:05.877Z,62.07
2023-01-07T06:50:10.152Z,61.76
2023-01-07T06:51:14.436Z,61.62
2023-01-07T06:52:18.717Z,61.44
2023-01-07T06:53:23.000Z,61.26
2023-01-07T06:54:27.249Z,61.13
2023-01-07T06:55:31.552Z,60.99
2023-01-07T06:56:35.852Z,60.86
2023-01-07T06:57:40.122Z,60.84
2023-01-07T06:58:44.359Z,60.84
2023-01-07T06:59:48.633Z,60.81
2023-01-07T07:00:53.012Z,60.9
2023-01-07T07:01:57.744Z,60.93
2023-01-07T07:03:02.462Z,60.99
2023-01-07T07:04:06.743Z,60.99
2023-01-07T07:05:11.003Z,61.08
2023-01-07T07:06:15.264Z,61.17
2023-01-07T07:07:19.533Z,61.17
2023-01-07T07:08:23.817Z,61.37
2023-01-07T07:09:28.358Z,61.35
2023-01-07T07:10:32.599Z,61.44
2023-01-07T07:11:36.880Z,61.49
2023-01-07T07:12:41.164Z,61.53
2023-01-07T07:13:45.420Z,61.65
2023-01-07T07:14:49.720Z,61.71
2023-01-07T07:15:54.251Z,61.7
2023-01-07T07:16:58.526Z,61.75
2023-01-07T07:18:02.759Z,61.83
2023-01-07T07:19:07.002Z,61.93
2023-01-07T07:20:11.291Z,62
2023-01-07T07:21:15.546Z,61.96
2023-01-07T07:22:19.824Z,62.18
2023-01-07T07:23:24.074Z,61.99
2023-01-07T07:24:28.333Z,61.48
2023-01-07T07:25:32.643Z,61.89
2023-01-07T07:26:36.881Z,61.63
2023-01-07T07:27:41.166Z,61.81
2023-01-07T07:28:45.412Z,62.02
2023-01-07T07:29:49.693Z,62.11
2023-01-07T07:30:54.098Z,61.99
2023-01-07T07:31:58.554Z,61.93
2023-01-07T07:33:02.785Z,62.06
2023-01-07T07:34:09.308Z,62.14
2023-01-07T07:35:13.582Z,61.88
2023-01-07T07:36:17.854Z,61.98
2023-01-07T07:37:22.127Z,62.31
2023-01-07T07:38:26.444Z,62.17
2023-01-07T07:39:30.727Z,62.33
2023-01-07T07:40:34.974Z,62.32
2023-01-07T07:41:39.240Z,62.14
2023-01-07T07:43:14.111Z,62.3
2023-01-07T07:44:18.358Z,62.37
2023-01-07T07:45:22.594Z,62.51
2023-01-07T07:46:27.060Z,62.73
2023-01-07T07:47:31.425Z,62.75
2023-01-07T07:48:35.697Z,62.58
2023-01-07T07:49:40.036Z,62.63
2023-01-07T07:50:44.340Z,62.49
2023-01-07T07:51:48.599Z,61.81
2023-01-07T07:52:52.848Z,61.22
2023-01-07T07:53:59.492Z,60.15
2023-01-07T07:55:27.874Z,59.26
2023-01-07T07:56:32.148Z,58.97
2023-01-07T07:57:36.388Z,58.55
2023-01-07T07:58:40.677Z,58.29
2023-01-07T07:59:44.916Z,58.05
2023-01-07T08:00:49.196Z,58.08
2023-01-07T08:01:53.711Z,57.76
2023-01-07T08:02:58.157Z,57.7
2023-01-07T08:04:04.683Z,57.63
2023-01-07T08:05:08.966Z,57.44
2023-01-07T08:06:13.223Z,57.51
2023-01-07T08:07:37.790Z,57.57
2023-01-07T08:08:42.193Z,57.56
2023-01-07T08:09:46.447Z,57.34
2023-01-07T08:10:50.702Z,57.41
2023-01-07T08:11:54.986Z,57.33
2023-01-07T08:12:59.261Z,57.41
2023-01-07T08:14:06.697Z,57.51
2023-01-07T08:15:10.994Z,57.58
2023-01-07T08:16:15.474Z,57.54
2023-01-07T08:17:19.794Z,57.47
2023-01-07T08:18:24.080Z,57.54
2023-01-07T08:19:28.337Z,57.69
2023-01-07T08:20:32.598Z,57.73
2023-01-07T08:21:37.149Z,57.65
2023-01-07T08:22:41.461Z,57.57
2023-01-07T08:23:45.765Z,57.54
2023-01-07T08:24:50.004Z,57.43
2023-01-07T08:25:54.260Z,57.41
2023-01-07T08:26:58.509Z,57.47
2023-01-07T08:28:02.789Z,57.44
2023-01-07T08:29:07.083Z,57.4
2023-01-07T08:30:11.322Z,57.36
2023-01-07T08:31:15.741Z,57.53
2023-01-07T08:32:19.999Z,57.55
2023-01-07T08:33:24.270Z,57.53
2023-01-07T08:34:28.555Z,57.47
2023-01-07T08:35:32.848Z,57.15
2023-01-07T08:36:37.088Z,57.28
2023-01-07T08:37:41.391Z,57.24
2023-01-07T08:38:45.629Z,57.13
2023-01-07T08:39:49.899Z,56.91
2023-01-07T08:40:54.164Z,56.96
2023-01-07T08:41:58.395Z,56.92
2023-01-07T08:43:02.648Z,56.83
2023-01-07T08:44:06.874Z,56.87
2023-01-07T08:45:11.161Z,56.82
2023-01-07T08:46:15.781Z,56.63
2023-01-07T08:47:20.082Z,56.87
2023-01-07T08:48:24.327Z,56.65
2023-01-07T08:49:28.585Z,56.77
2023-01-07T08:50:32.867Z,56.84
2023-01-07T08:51:37.205Z,56.95
2023-01-07T08:52:41.465Z,56.8
2023-01-07T08:53:45.720Z,56.53
2023-01-07T08:54:50.224Z,56.61
2023-01-07T08:55:54.553Z,56.53
2023-01-07T08:56:58.840Z,56.37
2023-01-07T08:58:03.125Z,56.76
2023-01-07T08:59:07.409Z,56.95
2023-01-07T09:00:15.872Z,56.82
2023-01-07T09:01:20.622Z,56.41
2023-01-07T09:02:25.259Z,57.04
2023-01-07T09:03:29.552Z,56.42
2023-01-07T09:04:33.801Z,56.56
2023-01-07T09:05:38.065Z,56.91
2023-01-07T09:06:42.317Z,56.66
2023-01-07T09:07:46.606Z,56.89
2023-01-07T09:08:50.904Z,56.81
2023-01-07T09:09:55.157Z,56.7
2023-01-07T09:11:01.918Z,56.78
2023-01-07T09:12:06.181Z,56.91
2023-01-07T09:13:10.420Z,56.84
2023-01-07T09:14:14.691Z,56.98
2023-01-07T09:15:18.976Z,56.73
2023-01-07T09:16:23.454Z,56.69
2023-01-07T09:17:27.751Z,56.6
2023-01-07T09:18:32.098Z,56.84
2023-01-07T09:19:36.353Z,56.93
2023-01-07T09:20:40.611Z,56.92
2023-01-07T09:21:44.843Z,56.94
2023-01-07T09:22:49.099Z,56.9
2023-01-07T09:23:53.355Z,57.03
2023-01-07T09:24:57.582Z,57.16
2023-01-07T09:26:04.912Z,57.28
2023-01-07T09:27:09.192Z,57.42
2023-01-07T09:28:13.462Z,57.3
2023-01-07T09:29:17.737Z,57.25
2023-01-07T09:30:23.051Z,57.07
2023-01-07T09:31:27.600Z,57.34
2023-01-07T09:32:32.465Z,57.21
2023-01-07T09:33:36.747Z,57.26
2023-01-07T09:34:41.013Z,57.26
2023-01-07T09:35:45.300Z,57.26
2023-01-07T09:36:49.580Z,57.39
2023-01-07T09:37:53.839Z,57.27
2023-01-07T09:38:58.065Z,57.31
2023-01-07T09:40:02.363Z,57.31
2023-01-07T09:41:06.639Z,57.36
2023-01-07T09:42:10.893Z,57.3
2023-01-07T09:43:15.133Z,57.23
2023-01-07T09:44:19.441Z,57.26
2023-01-07T09:45:23.695Z,57.29
2023-01-07T09:46:27.980Z,57.36
2023-01-07T09:47:32.222Z,57.23
2023-01-07T09:48:36.496Z,56.92
2023-01-07T09:49:40.799Z,57.16
2023-01-07T09:50:45.103Z,57.14
2023-01-07T09:51:49.364Z,57.2
2023-01-07T09:52:53.646Z,57.28
2023-01-07T09:53:57.899Z,57.2
2023-01-07T09:55:02.148Z,57.28
2023-01-07T09:56:14.445Z,57.23
2023-01-07T09:57:18.722Z,57.25
2023-01-07T09:58:23.000Z,57.32
2023-01-07T09:59:27.301Z,57.23
2023-01-07T10:00:31.584Z,57.23
2023-01-07T10:01:38.318Z,57.17
2023-01-07T10:02:42.825Z,57.06
2023-01-07T10:03:47.255Z,57.06
2023-01-07T10:04:51.521Z,57.05
2023-01-07T10:05:55.796Z,57.05
2023-01-07T10:07:00.308Z,56.95
2023-01-07T10:08:33.991Z,56.96
2023-01-07T10:09:38.237Z,56.86
2023-01-07T10:10:42.470Z,57
2023-01-07T10:11:46.713Z,56.79
2023-01-07T10:12:51.031Z,56.79
2023-01-07T10:13:55.335Z,56.94
2023-01-07T10:14:59.910Z,56.53
2023-01-07T10:16:04.750Z,56.71
2023-01-07T10:17:09.079Z,56.66
2023-01-07T10:18:13.503Z,56.64
2023-01-07T10:19:17.810Z,56.7
2023-01-07T10:20:22.246Z,56.64
2023-01-07T10:21:26.508Z,56.82
2023-01-07T10:22:30.789Z,56.71
2023-01-07T10:23:35.071Z,56.73
2023-01-07T10:24:39.313Z,56.7
2023-01-07T10:25:43.595Z,56.64
2023-01-07T10:26:47.838Z,56.64
2023-01-07T10:27:52.086Z,56.72
2023-01-07T10:28:56.331Z,56.77
2023-01-07T10:30:00.609Z,56.79
2023-01-07T10:31:04.878Z,56.81
2023-01-07T10:32:09.158Z,56.78
2023-01-07T10:33:13.459Z,56.77
2023-01-07T10:34:17.707Z,56.52
2023-01-07T10:35:22.024Z,56.73
2023-01-07T10:36:26.314Z,56.64
2023-01-07T10:37:30.559Z,56.45
2023-01-07T10:38:34.807Z,56.25
2023-01-07T10:39:39.049Z,56.48
2023-01-07T10:40:43.306Z,56.41
2023-01-07T10:41:47.568Z,56.43
2023-01-07T10:42:51.839Z,56.47
2023-01-07T10:43:56.067Z,56.39
2023-01-07T10:45:00.347Z,56.28
2023-01-07T10:46:05.009Z,56.36
2023-01-07T10:47:09.317Z,56.4
2023-01-07T10:48:13.578Z,56.53
2023-01-07T10:49:17.856Z,56.39
2023-01-07T10:50:22.171Z,56.3
2023-01-07T10:51:26.402Z,56.32
2023-01-07T10:52:30.654Z,56.3
2023-01-07T10:53:34.949Z,56.12
2023-01-07T10:54:39.210Z,56.21
2023-01-07T10:55:43.489Z,56.25
2023-01-07T10:56:47.730Z,56.2
2023-01-07T10:57:51.992Z,56.02
2023-01-07T10:58:56.254Z,56.19
2023-01-07T11:00:00.493Z,56.19
2023-01-07T11:01:05.207Z,56.25
2023-01-07T11:02:10.228Z,56.36
2023-01-07T11:03:14.743Z,56.42
2023-01-07T11:04:19.016Z,56.42
2023-01-07T11:05:23.334Z,56.42
2023-01-07T11:06:27.626Z,56.37
2023-01-07T11:07:31.886Z,56.33
2023-01-07T11:08:36.141Z,56.36
2023-01-07T11:09:40.358Z,56.28
2023-01-07T11:10:44.590Z,56.22
2023-01-07T11:11:48.887Z,56.27
2023-01-07T11:12:53.167Z,56.28
2023-01-07T11:13:57.429Z,56.37
2023-01-07T11:15:01.718Z,56.39
2023-01-07T11:16:05.958Z,56.22
2023-01-07T11:17:10.219Z,56.3
2023-01-07T11:18:14.562Z,56.28
2023-01-07T11:19:22.209Z,56.26
2023-01-07T11:20:26.460Z,56.27
2023-01-07T11:21:46.054Z,56.21
2023-01-07T11:22:50.301Z,56.22
2023-01-07T11:23:54.526Z,56.24
2023-01-07T11:24:58.838Z,56.11
2023-01-07T11:26:03.179Z,56.21
2023-01-07T11:27:07.439Z,56.37
2023-01-07T11:28:11.693Z,56.28
2023-01-07T11:29:15.975Z,56.26
2023-01-07T11:30:20.270Z,56.3
2023-01-07T11:31:24.742Z,56.21
2023-01-07T11:32:29.021Z,56.25
2023-01-07T11:34:05.843Z,56.16
2023-01-07T11:35:10.147Z,56.24
2023-01-07T11:36:14.409Z,56.27
2023-01-07T11:37:18.674Z,56.24
2023-01-07T11:38:22.963Z,56.23
2023-01-07T11:39:27.255Z,56.1
2023-01-07T11:40:33.915Z,56.23
2023-01-07T11:41:38.208Z,56.22
2023-01-07T11:42:42.503Z,56.13
2023-01-07T11:43:46.738Z,56.1
2023-01-07T11:44:50.993Z,56.05
2023-01-07T11:46:26.833Z,56.11
2023-01-07T11:47:31.282Z,56.16
2023-01-07T11:48:36.778Z,56.09
2023-01-07T11:49:41.073Z,56.18
2023-01-07T11:50:45.331Z,55.76
2023-01-07T11:51:51.636Z,56.16
2023-01-07T11:52:55.888Z,56.11
2023-01-07T11:54:00.182Z,56.15
2023-01-07T11:55:04.482Z,56.18
2023-01-07T11:56:08.745Z,56.1
2023-01-07T11:57:13.007Z,55.97
2023-01-07T11:58:32.488Z,56.07
2023-01-07T11:59:36.742Z,55.99
2023-01-07T12:00:40.976Z,56.01
2023-01-07T12:01:45.277Z,55.99
2023-01-07T12:02:49.727Z,55.97
2023-01-07T12:03:54.364Z,56.18
2023-01-07T12:04:58.631Z,55.87
2023-01-07T12:06:03.062Z,56.09
2023-01-07T12:07:07.349Z,56.32
2023-01-07T12:08:11.595Z,56.21
2023-01-07T12:09:15.894Z,55.96
2023-01-07T12:10:20.145Z,56.29
2023-01-07T12:11:24.383Z,56.01
2023-01-07T12:12:28.707Z,56.07
2023-01-07T12:13:32.995Z,56.03
2023-01-07T12:14:37.255Z,56.03
2023-01-07T12:15:41.507Z,56.02
2023-01-07T12:16:46.107Z,56.16
2023-01-07T12:17:50.404Z,56.14
2023-01-07T12:18:54.633Z,56.15
2023-01-07T12:19:58.883Z,56.09
2023-01-07T12:21:03.188Z,56.08
2023-01-07T12:22:07.446Z,55.94
2023-01-07T12:23:11.772Z,55.94
2023-01-07T12:24:16.315Z,56.03
2023-01-07T12:25:20.545Z,56.07
2023-01-07T12:26:24.852Z,56.06
2023-01-07T12:27:29.120Z,56.13
2023-01-07T12:28:33.388Z,56.14
2023-01-07T12:29:37.679Z,56.22
2023-01-07T12:30:45.165Z,56.25
2023-01-07T12:31:49.849Z,56.27
2023-01-07T12:32:54.194Z,56.26
2023-01-07T12:33:58.456Z,56.33
2023-01-07T12:35:16.905Z,56.28
2023-01-07T12:36:21.133Z,56.35
2023-01-07T12:37:25.479Z,56.38
2023-01-07T12:38:29.735Z,56.3
2023-01-07T12:39:33.986Z,56.16
2023-01-07T12:40:38.320Z,56.26
2023-01-07T12:41:42.621Z,56.25
2023-01-07T12:42:46.932Z,56.32
2023-01-07T12:43:51.190Z,56.18
2023-01-07T12:44:55.476Z,56.3
2023-01-07T12:46:00.114Z,56.21
2023-01-07T12:47:36.198Z,56.18
2023-01-07T12:48:40.494Z,56.13
2023-01-07T12:49:44.814Z,56.19
2023-01-07T12:50:49.093Z,56.08
2023-01-07T12:51:55.702Z,56.37
2023-01-07T12:52:59.957Z,56.19
2023-01-07T12:54:04.228Z,56.07
2023-01-07T12:55:08.503Z,56.22
2023-01-07T12:56:12.766Z,56.27
2023-01-07T12:57:17.028Z,56.18
2023-01-07T12:58:21.327Z,56.08
2023-01-07T12:59:49.660Z,56.14
2023-01-07T13:00:54.137Z,56.12
2023-01-07T13:01:58.890Z,56.16
2023-01-07T13:03:03.199Z,56.24
2023-01-07T13:04:07.519Z,56.16
2023-01-07T13:05:11.879Z,56.34
2023-01-07T13:06:16.177Z,56.43
2023-01-07T13:07:20.426Z,56.57
2023-01-07T13:08:24.695Z,56.58
2023-01-07T13:09:28.970Z,56.5
2023-01-07T13:10:33.262Z,56.63
2023-01-07T13:11:37.515Z,56.39
2023-01-07T13:12:45.419Z,56.39
2023-01-07T13:13:49.827Z,56.32
2023-01-07T13:14:54.312Z,56.31
2023-01-07T13:15:58.982Z,56.31
2023-01-07T13:17:03.277Z,56.39
2023-01-07T13:18:07.518Z,56.34
2023-01-07T13:19:11.758Z,56.29
2023-01-07T13:20:16.026Z,56.38
2023-01-07T13:21:20.388Z,56.29
2023-01-07T13:22:24.675Z,56.3
2023-01-07T13:23:28.915Z,56.33
2023-01-07T13:24:58.621Z,56.37
2023-01-07T13:26:03.877Z,56.33
2023-01-07T13:27:08.127Z,56.33
2023-01-07T13:28:12.457Z,56.48
2023-01-07T13:29:16.757Z,56.35
2023-01-07T13:30:21.013Z,56.56
2023-01-07T13:31:25.803Z,56.54
2023-01-07T13:32:30.136Z,56.54
2023-01-07T13:33:34.383Z,56.59
2023-01-07T13:34:38.634Z,56.55
2023-01-07T13:35:42.882Z,56.65
2023-01-07T13:36:47.162Z,56.8
2023-01-07T13:37:51.434Z,56.76
2023-01-07T13:38:55.662Z,56.76
2023-01-07T13:39:59.898Z,56.86
2023-01-07T13:41:05.203Z,56.92
2023-01-07T13:42:09.491Z,56.89
2023-01-07T13:43:13.741Z,56.89
2023-01-07T13:44:18.000Z,56.91
2023-01-07T13:45:22.298Z,56.96
2023-01-07T13:46:26.761Z,56.98
2023-01-07T13:47:31.042Z,57
2023-01-07T13:48:35.309Z,56.96
2023-01-07T13:49:39.926Z,56.92
2023-01-07T13:51:00.764Z,56.82
2023-01-07T13:52:05.167Z,56.96
2023-01-07T13:53:09.515Z,56.91
2023-01-07T13:54:14.099Z,56.91
2023-01-07T13:55:18.415Z,57.07
2023-01-07T13:56:22.719Z,56.82
2023-01-07T13:57:26.996Z,56.68